Terminal Aerodrome Forecast
Issued by NWS Wilmington, OH

Home | Current Version | Previous Version | Text Only | Print | Product List | Glossary On
Versions: 1 2 3 4 5 6 7 8 9 10 11 12 13 14 15 16 17 18
527
FTUS41 KILN 121745
TAFILN
TAF
KILN 121745Z 1218/1318 27014G22KT P6SM -SHSN OVC035
     FM122200 28015G25KT 2SM -SHSN OVC020
     FM130100 32015G25KT P6SM -SHSN BKN020
     FM130800 34014G22KT P6SM -SHSN BKN020
     FM131100 34010KT P6SM VCSH BKN020 BKN035=

USA.gov is the U.S. government's official web portal to all federal, state and local government web resources and services.